sensor_id;sensor_type;location;lat;lon;timestamp;pressure;altitude;pressure_sealevel;temperature;humidity
75219;BME280;63801;49.414;19.474;2024-01-06T00:01:04;92816.00;;;5.48;77.63
75219;BME280;63801;49.414;19.474;2024-01-06T00:03:04;92816.44;;;5.50;77.64
75219;BME280;63801;49.414;19.474;2024-01-06T00:05:05;92808.78;;;5.49;77.70
75219;BME280;63801;49.414;19.474;2024-01-06T00:07:05;92810.22;;;5.46;77.64
75219;BME280;63801;49.414;19.474;2024-01-06T00:09:06;92811.00;;;5.47;77.64
75219;BME280;63801;49.414;19.474;2024-01-06T00:11:07;92810.22;;;5.46;77.60
75219;BME280;63801;49.414;19.474;2024-01-06T00:13:07;92806.44;;;5.47;76.98
75219;BME280;63801;49.414;19.474;2024-01-06T00:15:08;92812.56;;;5.48;77.60
75219;BME280;63801;49.414;19.474;2024-01-06T00:17:08;92793.31;;;5.42;77.97
75219;BME280;63801;49.414;19.474;2024-01-06T00:19:09;92798.84;;;5.49;77.84
75219;BME280;63801;49.414;19.474;2024-01-06T00:21:09;92796.75;;;5.42;77.77
75219;BME280;63801;49.414;19.474;2024-01-06T00:23:09;92807.75;;;5.53;77.68
75219;BME280;63801;49.414;19.474;2024-01-06T00:25:10;92811.97;;;5.54;77.50
75219;BME280;63801;49.414;19.474;2024-01-06T00:27:10;92806.28;;;5.56;77.66
75219;BME280;63801;49.414;19.474;2024-01-06T00:29:10;92802.84;;;5.55;77.51
75219;BME280;63801;49.414;19.474;2024-01-06T00:31:11;92805.50;;;5.55;77.60
75219;BME280;63801;49.414;19.474;2024-01-06T00:33:12;92804.03;;;5.58;77.64
75219;BME280;63801;49.414;19.474;2024-01-06T00:35:12;92805.28;;;5.60;77.56
75219;BME280;63801;49.414;19.474;2024-01-06T00:37:13;92803.28;;;5.57;77.53
75219;BME280;63801;49.414;19.474;2024-01-06T00:39:13;92808.38;;;5.62;77.47
75219;BME280;63801;49.414;19.474;2024-01-06T00:41:13;92809.94;;;5.63;77.63
75219;BME280;63801;49.414;19.474;2024-01-06T00:43:14;92807.25;;;5.63;77.56
75219;BME280;63801;49.414;19.474;2024-01-06T00:45:14;92806.13;;;5.64;77.76
75219;BME280;63801;49.414;19.474;2024-01-06T00:47:14;92800.69;;;5.61;77.61
75219;BME280;63801;49.414;19.474;2024-01-06T00:49:15;92809.94;;;5.63;77.51
75219;BME280;63801;49.414;19.474;2024-01-06T00:51:15;92805.13;;;5.69;77.62
75219;BME280;63801;49.414;19.474;2024-01-06T00:53:15;92810.13;;;5.70;77.55
75219;BME280;63801;49.414;19.474;2024-01-06T00:55:16;92804.09;;;5.73;77.42
75219;BME280;63801;49.414;19.474;2024-01-06T00:57:16;92807.88;;;5.72;77.44
75219;BME280;63801;49.414;19.474;2024-01-06T00:59:16;92800.22;;;5.71;77.40
75219;BME280;63801;49.414;19.474;2024-01-06T01:01:17;92797.09;;;5.69;77.34
75219;BME280;63801;49.414;19.474;2024-01-06T01:03:17;92810.13;;;5.70;77.42
75219;BME280;63801;49.414;19.474;2024-01-06T01:05:17;92798.66;;;5.70;77.51
75219;BME280;63801;49.414;19.474;2024-01-06T01:07:18;92797.88;;;5.69;77.44
75219;BME280;63801;49.414;19.474;2024-01-06T01:09:18;92804.78;;;5.70;77.38
75219;BME280;63801;49.414;19.474;2024-01-06T01:11:19;92807.00;;;5.68;77.45
75219;BME280;63801;49.414;19.474;2024-01-06T01:13:19;92801.75;;;5.72;77.46
75219;BME280;63801;49.414;19.474;2024-01-06T01:15:20;92801.44;;;5.73;77.44
75219;BME280;63801;49.414;19.474;2024-01-06T01:17:20;92799.88;;;5.72;77.38
75219;BME280;63801;49.414;19.474;2024-01-06T01:19:20;92800.47;;;5.66;77.38
75219;BME280;63801;49.414;19.474;2024-01-06T01:21:21;92808.66;;;5.73;77.45
75219;BME280;63801;49.414;19.474;2024-01-06T01:23:21;92804.09;;;5.73;77.42
75219;BME280;63801;49.414;19.474;2024-01-06T01:25:21;92797.97;;;5.73;77.40
75219;BME280;63801;49.414;19.474;2024-01-06T01:27:22;92803.00;;;5.74;77.41
75219;BME280;63801;49.414;19.474;2024-01-06T01:29:23;92797.88;;;5.69;77.53
75219;BME280;63801;49.414;19.474;2024-01-06T01:31:23;92803.22;;;5.69;77.35
75219;BME280;63801;49.414;19.474;2024-01-06T01:33:25;92804.09;;;5.73;77.39
75219;BME280;63801;49.414;19.474;2024-01-06T01:35:25;92813.69;;;5.74;77.36
75219;BME280;63801;49.414;19.474;2024-01-06T01:37:25;92803.31;;;5.73;77.28
75219;BME280;63801;49.414;19.474;2024-01-06T01:39:26;92802.53;;;5.72;77.26
75219;BME280;63801;49.414;19.474;2024-01-06T01:41:26;92801.75;;;5.72;77.37
75219;BME280;63801;49.414;19.474;2024-01-06T01:43:26;92791.84;;;5.72;77.39
75219;BME280;63801;49.414;19.474;2024-01-06T01:45:28;92788.75;;;5.70;77.31
75219;BME280;63801;49.414;19.474;2024-01-06T01:47:29;92776.19;;;5.59;77.40
75219;BME280;63801;49.414;19.474;2024-01-06T01:49:29;92787.19;;;5.69;77.42
75219;BME280;63801;49.414;19.474;2024-01-06T01:51:32;92781.38;;;5.67;77.39
75219;BME280;63801;49.414;19.474;2024-01-06T01:53:33;92781.63;;;5.62;77.32
75219;BME280;63801;49.414;19.474;2024-01-06T01:55:33;92774.06;;;5.64;77.25
75219;BME280;63801;49.414;19.474;2024-01-06T01:57:34;92774.84;;;5.65;77.19
75219;BME280;63801;49.414;19.474;2024-01-06T01:59:34;92776.28;;;5.62;77.39
75219;BME280;63801;49.414;19.474;2024-01-06T02:01:34;92776.97;;;5.59;77.37
75219;BME280;63801;49.414;19.474;2024-01-06T02:03:35;92773.97;;;5.61;77.29
75219;BME280;63801;49.414;19.474;2024-01-06T02:05:36;92764.72;;;5.58;77.23
75219;BME280;63801;49.414;19.474;2024-01-06T02:07:36;92756.19;;;5.53;77.21
75219;BME280;63801;49.414;19.474;2024-01-06T02:09:36;92771.72;;;5.63;77.14
75219;BME280;63801;49.414;19.474;2024-01-06T02:11:37;92769.50;;;5.65;77.11
75219;BME280;63801;49.414;19.474;2024-01-06T02:13:37;92764.94;;;5.65;76.93
75219;BME280;63801;49.414;19.474;2024-01-06T02:15:38;92767.25;;;5.67;77.16
75219;BME280;63801;49.414;19.474;2024-01-06T02:17:39;92770.69;;;5.67;76.85
75219;BME280;63801;49.414;19.474;2024-01-06T02:19:40;92771.94;;;5.70;76.89
75219;BME280;63801;49.414;19.474;2024-01-06T02:21:42;92760.38;;;5.66;76.80
75219;BME280;63801;49.414;19.474;2024-01-06T02:23:43;92767.78;;;5.72;76.66
75219;BME280;63801;49.414;19.474;2024-01-06T02:25:43;92756.91;;;5.65;76.98
75219;BME280;63801;49.414;19.474;2024-01-06T02:27:43;92764.41;;;5.75;76.82
75219;BME280;63801;49.414;19.474;2024-01-06T02:29:43;92770.22;;;5.77;76.70
75219;BME280;63801;49.414;19.474;2024-01-06T02:31:44;92765.31;;;5.79;76.73
75219;BME280;63801;49.414;19.474;2024-01-06T02:33:44;92766.84;;;5.80;76.59
75219;BME280;63801;49.414;19.474;2024-01-06T02:35:48;92760.22;;;5.74;76.25
75219;BME280;63801;49.414;19.474;2024-01-06T02:37:48;92748.50;;;5.79;76.35
75219;BME280;63801;49.414;19.474;2024-01-06T02:39:48;92747.88;;;5.85;76.29
75219;BME280;63801;49.414;19.474;2024-01-06T02:41:49;92757.94;;;5.89;76.20
75219;BME280;63801;49.414;19.474;2024-01-06T02:43:49;92751.66;;;5.84;76.03
75219;BME280;63801;49.414;19.474;2024-01-06T02:45:50;92758.81;;;5.93;76.34
75219;BME280;63801;49.414;19.474;2024-01-06T02:47:50;92759.56;;;5.93;76.08
75219;BME280;63801;49.414;19.474;2024-01-06T02:49:50;92758.91;;;5.96;76.01
75219;BME280;63801;49.414;19.474;2024-01-06T02:51:51;92741.91;;;5.89;75.99
75219;BME280;63801;49.414;19.474;2024-01-06T02:53:51;92750.34;;;5.91;75.92
75219;BME280;63801;49.414;19.474;2024-01-06T02:55:51;92761.66;;;6.00;75.55
75219;BME280;63801;49.414;19.474;2024-01-06T02:57:52;92758.19;;;5.99;75.55
75219;BME280;63801;49.414;19.474;2024-01-06T02:59:52;92750.94;;;6.00;75.37
75219;BME280;63801;49.414;19.474;2024-01-06T03:01:52;92757.88;;;6.01;75.54
75219;BME280;63801;49.414;19.474;2024-01-06T03:03:53;92758.28;;;6.03;75.42
75219;BME280;63801;49.414;19.474;2024-01-06T03:05:53;92747.59;;;6.03;75.49
75219;BME280;63801;49.414;19.474;2024-01-06T03:07:53;92740.25;;;6.00;75.36
75219;BME280;63801;49.414;19.474;2024-01-06T03:09:54;92756.91;;;6.09;75.30
75219;BME280;63801;49.414;19.474;2024-01-06T03:11:54;92759.25;;;6.10;75.20
75219;BME280;63801;49.414;19.474;2024-01-06T03:13:54;92749.31;;;6.11;75.16
75219;BME280;63801;49.414;19.474;2024-01-06T03:15:55;92747.06;;;6.13;75.36
75219;BME280;63801;49.414;19.474;2024-01-06T03:17:55;92750.44;;;6.10;74.55
75219;BME280;63801;49.414;19.474;2024-01-06T03:19:56;92747.78;;;6.10;74.61
75219;BME280;63801;49.414;19.474;2024-01-06T03:21:56;92744.75;;;6.11;74.54
75219;BME280;63801;49.414;19.474;2024-01-06T03:23:57;92746.63;;;6.11;74.56
75219;BME280;63801;49.414;19.474;2024-01-06T03:25:57;92747.84;;;6.13;74.59
75219;BME280;63801;49.414;19.474;2024-01-06T03:27:57;92737.94;;;6.14;74.06
75219;BME280;63801;49.414;19.474;2024-01-06T03:29:57;92749.16;;;6.19;74.50
75219;BME280;63801;49.414;19.474;2024-01-06T03:31:58;92733.69;;;6.13;74.28
75219;BME280;63801;49.414;19.474;2024-01-06T03:33:58;92744.56;;;6.20;74.27
75219;BME280;63801;49.414;19.474;2024-01-06T03:36:04;92737.75;;;6.22;74.34
75219;BME280;63801;49.414;19.474;2024-01-06T03:38:04;92737.75;;;6.22;74.15
75219;BME280;63801;49.414;19.474;2024-01-06T03:40:05;92736.66;;;6.23;74.25
75219;BME280;63801;49.414;19.474;2024-01-06T03:42:06;92741.22;;;6.23;74.35
75219;BME280;63801;49.414;19.474;2024-01-06T03:44:07;92737.75;;;6.22;74.02
75219;BME280;63801;49.414;19.474;2024-01-06T03:46:07;92739.22;;;6.20;74.00
75219;BME280;63801;49.414;19.474;2024-01-06T03:48:07;92731.97;;;6.20;74.30
75219;BME280;63801;49.414;19.474;2024-01-06T03:50:08;92724.72;;;6.21;74.09
75219;BME280;63801;49.414;19.474;2024-01-06T03:52:08;92730.50;;;6.23;74.19
75219;BME280;63801;49.414;19.474;2024-01-06T03:54:08;92723.84;;;6.17;74.13
75219;BME280;63801;49.414;19.474;2024-01-06T03:56:09;92732.06;;;6.24;74.10
75219;BME280;63801;49.414;19.474;2024-01-06T03:58:09;92734.38;;;6.25;74.25
75219;BME280;63801;49.414;19.474;2024-01-06T04:00:10;92727.47;;;6.24;74.40
75219;BME280;63801;49.414;19.474;2024-01-06T04:02:10;92718.69;;;6.24;74.34
75219;BME280;63801;49.414;19.474;2024-01-06T04:04:11;92732.06;;;6.24;74.19
75219;BME280;63801;49.414;19.474;2024-01-06T04:06:11;92733.59;;;6.25;74.05
75219;BME280;63801;49.414;19.474;2024-01-06T04:08:11;92734.06;;;6.27;74.35
75219;BME280;63801;49.414;19.474;2024-01-06T04:10:12;92734.84;;;6.27;74.38
75219;BME280;63801;49.414;19.474;2024-01-06T04:12:12;92728.25;;;6.25;74.26
75219;BME280;63801;49.414;19.474;2024-01-06T04:14:12;92736.03;;;6.30;74.08
75219;BME280;63801;49.414;19.474;2024-01-06T04:16:13;92734.47;;;6.29;74.04
75219;BME280;63801;49.414;19.474;2024-01-06T04:18:13;92738.28;;;6.28;74.55
75219;BME280;63801;49.414;19.474;2024-01-06T04:20:13;92737.50;;;6.27;74.27
75219;BME280;63801;49.414;19.474;2024-01-06T04:22:14;92738.28;;;6.28;74.22
75219;BME280;63801;49.414;19.474;2024-01-06T04:24:14;92730.44;;;6.19;74.30
75219;BME280;63801;49.414;19.474;2024-01-06T04:26:14;92740.09;;;6.24;74.23
75219;BME280;63801;49.414;19.474;2024-01-06T04:28:15;92751.66;;;6.28;74.34
75219;BME280;63801;49.414;19.474;2024-01-06T04:30:16;92748.22;;;6.27;74.34
75219;BME280;63801;49.414;19.474;2024-01-06T04:32:16;92738.09;;;6.21;74.49
75219;BME280;63801;49.414;19.474;2024-01-06T04:34:16;92753.19;;;6.29;74.53
75219;BME280;63801;49.414;19.474;2024-01-06T04:36:17;92742.78;;;6.24;74.24
75219;BME280;63801;49.414;19.474;2024-01-06T04:38:18;92750.97;;;6.31;74.50
75219;BME280;63801;49.414;19.474;2024-01-06T04:40:18;92747.19;;;6.32;74.55
75219;BME280;63801;49.414;19.474;2024-01-06T04:42:18;92741.72;;;6.28;74.58
75219;BME280;63801;49.414;19.474;2024-01-06T04:44:20;92735.94;;;6.26;74.62
75219;BME280;63801;49.414;19.474;2024-01-06T04:46:21;92729.22;;;6.32;74.46
75219;BME280;63801;49.414;19.474;2024-01-06T04:48:21;92746.41;;;6.31;74.33
75219;BME280;63801;49.414;19.474;2024-01-06T04:50:22;92735.88;;;6.23;74.42
75219;BME280;63801;49.414;19.474;2024-01-06T04:52:22;92734.91;;;6.15;74.22
75219;BME280;63801;49.414;19.474;2024-01-06T04:54:22;92731.91;;;6.01;74.55
75219;BME280;63801;49.414;19.474;2024-01-06T04:56:23;92746.38;;;6.00;74.38
75219;BME280;63801;49.414;19.474;2024-01-06T04:58:23;92734.75;;;5.93;74.56
75219;BME280;63801;49.414;19.474;2024-01-06T05:00:23;92739.63;;;5.91;74.58
75219;BME280;63801;49.414;19.474;2024-01-06T05:02:25;92734.09;;;5.83;74.52
75219;BME280;63801;49.414;19.474;2024-01-06T05:04:26;92742.13;;;5.83;74.76
75219;BME280;63801;49.414;19.474;2024-01-06T05:06:26;92742.78;;;5.80;74.72
75219;BME280;63801;49.414;19.474;2024-01-06T05:08:27;92727.75;;;5.76;74.84
75219;BME280;63801;49.414;19.474;2024-01-06T05:10:27;92724.66;;;5.74;74.88
75219;BME280;63801;49.414;19.474;2024-01-06T05:12:27;92726.13;;;5.71;74.96
75219;BME280;63801;49.414;19.474;2024-01-06T05:14:28;92733.72;;;5.69;75.07
75219;BME280;63801;49.414;19.474;2024-01-06T05:16:28;92729.06;;;5.66;75.16
75219;BME280;63801;49.414;19.474;2024-01-06T05:18:28;92730.19;;;5.65;75.11
75219;BME280;63801;49.414;19.474;2024-01-06T05:20:29;92730.09;;;5.62;75.09
75219;BME280;63801;49.414;19.474;2024-01-06T05:22:29;92732.56;;;5.55;75.12
75219;BME280;63801;49.414;19.474;2024-01-06T05:24:29;92734.03;;;5.52;75.36
75219;BME280;63801;49.414;19.474;2024-01-06T05:26:30;92736.25;;;5.50;75.35
75219;BME280;63801;49.414;19.474;2024-01-06T05:28:30;92736.94;;;5.47;75.21
75219;BME280;63801;49.414;19.474;2024-01-06T05:30:30;92740.31;;;5.44;75.41
75219;BME280;63801;49.414;19.474;2024-01-06T05:32:31;92740.53;;;5.39;75.34
75219;BME280;63801;49.414;19.474;2024-01-06T05:34:31;92744.31;;;5.38;75.54
75219;BME280;63801;49.414;19.474;2024-01-06T05:36:32;92725.69;;;5.26;75.60
75219;BME280;63801;49.414;19.474;2024-01-06T05:38:32;92748.78;;;5.34;75.43
75219;BME280;63801;49.414;19.474;2024-01-06T05:40:32;92748.69;;;5.30;75.57
75219;BME280;63801;49.414;19.474;2024-01-06T05:42:33;92748.59;;;5.27;75.42
75219;BME280;63801;49.414;19.474;2024-01-06T05:44:36;92748.59;;;5.27;75.75
75219;BME280;63801;49.414;19.474;2024-01-06T05:46:37;92750.84;;;5.25;75.67
75219;BME280;63801;49.414;19.474;2024-01-06T05:48:37;92749.59;;;5.22;75.67
75219;BME280;63801;49.414;19.474;2024-01-06T05:50:38;92760.63;;;5.21;75.75
75219;BME280;63801;49.414;19.474;2024-01-06T05:52:42;92761.97;;;5.15;75.61
75219;BME280;63801;49.414;19.474;2024-01-06T05:54:43;92769.81;;;5.08;75.63
75219;BME280;63801;49.414;19.474;2024-01-06T05:56:43;92760.03;;;5.00;75.68
75219;BME280;63801;49.414;19.474;2024-01-06T05:58:43;92764.94;;;4.97;75.66
75219;BME280;63801;49.414;19.474;2024-01-06T06:00:43;92763.72;;;4.95;75.86
75219;BME280;63801;49.414;19.474;2024-01-06T06:02:46;92769.06;;;4.95;75.94
75219;BME280;63801;49.414;19.474;2024-01-06T06:04:46;92766.72;;;4.93;75.62
75219;BME280;63801;49.414;19.474;2024-01-06T06:06:46;92771.28;;;4.93;75.94
75219;BME280;63801;49.414;19.474;2024-01-06T06:08:47;92760.41;;;4.86;76.00
75219;BME280;63801;49.414;19.474;2024-01-06T06:10:48;92767.25;;;4.87;76.06
75219;BME280;63801;49.414;19.474;2024-01-06T06:13:01;92766.38;;;4.83;75.94
75219;BME280;63801;49.414;19.474;2024-01-06T06:15:02;92763.97;;;4.78;75.74
75219;BME280;63801;49.414;19.474;2024-01-06T06:17:03;92771.53;;;4.76;76.08
75219;BME280;63801;49.414;19.474;2024-01-06T06:19:04;92769.41;;;4.69;76.12
75219;BME280;63801;49.414;19.474;2024-01-06T06:21:06;92774.09;;;4.72;76.07
75219;BME280;63801;49.414;19.474;2024-01-06T06:23:06;92776.75;;;4.72;76.20
75219;BME280;63801;49.414;19.474;2024-01-06T06:25:07;92778.31;;;4.73;76.25
75219;BME280;63801;49.414;19.474;2024-01-06T06:27:08;92790.88;;;4.73;76.22
75219;BME280;63801;49.414;19.474;2024-01-06T06:29:08;92792.00;;;4.72;76.22
75219;BME280;63801;49.414;19.474;2024-01-06T06:31:09;92788.53;;;4.71;76.17
75219;BME280;63801;49.414;19.474;2024-01-06T06:33:09;92789.00;;;4.73;76.22
75219;BME280;63801;49.414;19.474;2024-01-06T06:35:09;92787.34;;;4.69;76.36
75219;BME280;63801;49.414;19.474;2024-01-06T06:37:10;92788.66;;;4.75;76.41
75219;BME280;63801;49.414;19.474;2024-01-06T06:39:10;92789.09;;;4.77;76.29
75219;BME280;63801;49.414;19.474;2024-01-06T06:41:10;92788.00;;;4.78;76.31
75219;BME280;63801;49.414;19.474;2024-01-06T06:43:11;92801.44;;;4.81;76.37
75219;BME280;63801;49.414;19.474;2024-01-06T06:45:11;92794.97;;;4.82;76.65
75219;BME280;63801;49.414;19.474;2024-01-06T06:47:14;92801.22;;;4.86;76.55
75219;BME280;63801;49.414;19.474;2024-01-06T06:49:14;92796.53;;;4.83;76.56
75219;BME280;63801;49.414;19.474;2024-01-06T06:51:15;92803.91;;;4.86;76.52
75219;BME280;63801;49.414;19.474;2024-01-06T06:53:15;92823.91;;;4.92;76.48
75219;BME280;63801;49.414;19.474;2024-01-06T06:55:16;92822.34;;;4.91;76.60
75219;BME280;63801;49.414;19.474;2024-01-06T06:57:16;92816.09;;;4.87;76.70
75219;BME280;63801;49.414;19.474;2024-01-06T06:59:16;92819.13;;;4.86;76.63
75219;BME280;63801;49.414;19.474;2024-01-06T07:01:17;92811.34;;;4.81;76.73
75219;BME280;63801;49.414;19.474;2024-01-06T07:03:17;92820.34;;;4.88;76.92
75219;BME280;63801;49.414;19.474;2024-01-06T07:05:17;92825.00;;;4.91;76.67
75219;BME280;63801;49.414;19.474;2024-01-06T07:07:18;92823.13;;;4.92;76.99
75219;BME280;63801;49.414;19.474;2024-01-06T07:09:18;92823.25;;;4.95;77.08
75219;BME280;63801;49.414;19.474;2024-01-06T07:11:18;92815.56;;;4.94;77.05
75219;BME280;63801;49.414;19.474;2024-01-06T07:13:19;92816.34;;;4.94;76.92
75219;BME280;63801;49.414;19.474;2024-01-06T07:15:19;92823.13;;;5.04;77.00
75219;BME280;63801;49.414;19.474;2024-01-06T07:17:20;92825.13;;;5.07;76.93
75219;BME280;63801;49.414;19.474;2024-01-06T07:19:20;92822.13;;;5.09;77.07
75219;BME280;63801;49.414;19.474;2024-01-06T07:21:20;92823.66;;;5.10;77.05
75219;BME280;63801;49.414;19.474;2024-01-06T07:23:21;92819.88;;;5.11;76.89
75219;BME280;63801;49.414;19.474;2024-01-06T07:25:21;92824.44;;;5.10;76.91
75219;BME280;63801;49.414;19.474;2024-01-06T07:27:22;92816.09;;;5.12;77.21
75219;BME280;63801;49.414;19.474;2024-01-06T07:29:22;92808.31;;;5.07;77.03
75219;BME280;63801;49.414;19.474;2024-01-06T07:31:22;92815.31;;;5.11;77.01
75219;BME280;63801;49.414;19.474;2024-01-06T07:33:23;92822.53;;;5.11;77.13
75219;BME280;63801;49.414;19.474;2024-01-06T07:35:25;92813.75;;;5.10;77.16
75219;BME280;63801;49.414;19.474;2024-01-06T07:37:25;92814.84;;;5.09;77.07
75219;BME280;63801;49.414;19.474;2024-01-06T07:39:25;92813.66;;;5.07;77.06
75219;BME280;63801;49.414;19.474;2024-01-06T07:41:26;92814.84;;;5.09;77.01
75219;BME280;63801;49.414;19.474;2024-01-06T07:43:26;92809.41;;;5.06;77.21
75219;BME280;63801;49.414;19.474;2024-01-06T07:45:26;92820.31;;;5.13;77.03
75219;BME280;63801;49.414;19.474;2024-01-06T07:47:27;92804.53;;;5.08;77.43
75219;BME280;63801;49.414;19.474;2024-01-06T07:49:27;92822.31;;;5.16;77.32
75219;BME280;63801;49.414;19.474;2024-01-06T07:51:27;92811.63;;;5.16;77.29
75219;BME280;63801;49.414;19.474;2024-01-06T07:53:28;92812.09;;;5.18;77.46
75219;BME280;63801;49.414;19.474;2024-01-06T07:55:28;92804.81;;;5.18;76.97
75219;BME280;63801;49.414;19.474;2024-01-06T07:57:28;92821.31;;;5.20;77.43
75219;BME280;63801;49.414;19.474;2024-01-06T07:59:29;92812.50;;;5.20;77.46
75219;BME280;63801;49.414;19.474;2024-01-06T08:01:29;92817.84;;;5.20;77.54
75219;BME280;63801;49.414;19.474;2024-01-06T08:03:30;92823.19;;;5.20;77.58
75219;BME280;63801;49.414;19.474;2024-01-06T08:05:30;92817.84;;;5.20;77.55
75219;BME280;63801;49.414;19.474;2024-01-06T08:07:31;92816.28;;;5.19;77.60
75219;BME280;63801;49.414;19.474;2024-01-06T08:09:31;92828.53;;;5.20;77.74
75219;BME280;63801;49.414;19.474;2024-01-06T08:11:32;92809.41;;;5.18;77.69
75219;BME280;63801;49.414;19.474;2024-01-06T08:13:32;92822.88;;;5.21;77.78
75219;BME280;63801;49.414;19.474;2024-01-06T08:15:32;92820.97;;;5.22;77.79
75219;BME280;63801;49.414;19.474;2024-01-06T08:17:33;92825.19;;;5.23;77.81
75219;BME280;63801;49.414;19.474;2024-01-06T08:19:33;92829.66;;;5.19;77.89
75219;BME280;63801;49.414;19.474;2024-01-06T08:21:36;92834.75;;;5.24;78.16
75219;BME280;63801;49.414;19.474;2024-01-06T08:23:36;92824.06;;;5.24;77.84
75219;BME280;63801;49.414;19.474;2024-01-06T08:25:36;92830.97;;;5.25;77.90
75219;BME280;63801;49.414;19.474;2024-01-06T08:27:37;92831.75;;;5.25;77.96
75219;BME280;63801;49.414;19.474;2024-01-06T08:29:37;92843.88;;;5.23;77.88
75219;BME280;63801;49.414;19.474;2024-01-06T08:31:38;92836.31;;;5.25;77.96
75219;BME280;63801;49.414;19.474;2024-01-06T08:33:38;92836.00;;;5.26;78.00
75219;BME280;63801;49.414;19.474;2024-01-06T08:35:38;92836.44;;;5.28;78.04
75219;BME280;63801;49.414;19.474;2024-01-06T08:37:40;92833.84;;;5.32;77.91
75219;BME280;63801;49.414;19.474;2024-01-06T08:39:40;92831.63;;;5.34;78.10
75219;BME280;63801;49.414;19.474;2024-01-06T08:41:41;92823.63;;;5.34;78.18
75219;BME280;63801;49.414;19.474;2024-01-06T08:43:42;92835.19;;;5.38;78.14
75219;BME280;63801;49.414;19.474;2024-01-06T08:45:42;92836.84;;;5.42;78.20
75219;BME280;63801;49.414;19.474;2024-01-06T08:47:42;92831.72;;;5.37;78.31
75219;BME280;63801;49.414;19.474;2024-01-06T08:49:43;92837.94;;;5.41;78.21
75219;BME280;63801;49.414;19.474;2024-01-06T08:51:43;92832.94;;;5.40;78.21
75219;BME280;63801;49.414;19.474;2024-01-06T08:53:43;92839.19;;;5.44;78.25
75219;BME280;63801;49.414;19.474;2024-01-06T08:55:44;92828.28;;;5.37;78.31
75219;BME280;63801;49.414;19.474;2024-01-06T08:57:44;92838.28;;;5.40;78.40
75219;BME280;63801;49.414;19.474;2024-01-06T08:59:44;92835.28;;;5.41;78.48
75219;BME280;63801;49.414;19.474;2024-01-06T09:01:45;92840.28;;;5.43;78.44
75219;BME280;63801;49.414;19.474;2024-01-06T09:03:46;92838.03;;;5.45;78.43
75219;BME280;63801;49.414;19.474;2024-01-06T09:05:46;92828.72;;;5.39;78.41
75219;BME280;63801;49.414;19.474;2024-01-06T09:07:46;92826.84;;;5.39;78.52
75219;BME280;63801;49.414;19.474;2024-01-06T09:09:50;92829.59;;;5.43;78.43
75219;BME280;63801;49.414;19.474;2024-01-06T09:11:51;92826.94;;;5.43;78.51
75219;BME280;63801;49.414;19.474;2024-01-06T09:13:52;92830.47;;;5.47;78.50
75219;BME280;63801;49.414;19.474;2024-01-06T09:15:53;92829.69;;;5.47;78.49
75219;BME280;63801;49.414;19.474;2024-01-06T09:17:53;92826.25;;;5.46;78.67
75219;BME280;63801;49.414;19.474;2024-01-06T09:19:53;92825.91;;;5.48;78.91
75219;BME280;63801;49.414;19.474;2024-01-06T09:21:54;92822.78;;;5.46;78.60
75219;BME280;63801;49.414;19.474;2024-01-06T09:23:54;92805.78;;;5.38;78.73
75219;BME280;63801;49.414;19.474;2024-01-06T09:25:55;92823.25;;;5.48;78.74
75219;BME280;63801;49.414;19.474;2024-01-06T09:27:55;92806.44;;;5.47;78.84
75219;BME280;63801;49.414;19.474;2024-01-06T09:29:55;92814.53;;;5.51;78.88
75219;BME280;63801;49.414;19.474;2024-01-06T09:31:56;92818.88;;;5.55;79.08
75219;BME280;63801;49.414;19.474;2024-01-06T09:34:00;92804.31;;;5.53;79.11
75219;BME280;63801;49.414;19.474;2024-01-06T09:36:02;92800.41;;;5.50;79.14
75219;BME280;63801;49.414;19.474;2024-01-06T09:38:02;92803.94;;;5.54;79.13
75219;BME280;63801;49.414;19.474;2024-01-06T09:40:03;92814.41;;;5.59;78.87
75219;BME280;63801;49.414;19.474;2024-01-06T09:42:03;92813.63;;;5.59;79.25
75219;BME280;63801;49.414;19.474;2024-01-06T09:44:04;92804.03;;;5.58;79.23
75219;BME280;63801;49.414;19.474;2024-01-06T09:46:09;92804.94;;;5.62;79.31
75219;BME280;63801;49.414;19.474;2024-01-06T09:48:12;92793.34;;;5.58;79.46
75219;BME280;63801;49.414;19.474;2024-01-06T09:50:13;92806.13;;;5.64;79.51
75219;BME280;63801;49.414;19.474;2024-01-06T09:52:15;92806.59;;;5.66;79.51
75219;BME280;63801;49.414;19.474;2024-01-06T09:54:22;92813.16;;;5.69;79.57
75219;BME280;63801;49.414;19.474;2024-01-06T09:56:26;92812.38;;;5.68;79.46
75219;BME280;63801;49.414;19.474;2024-01-06T09:58:26;92816.28;;;5.71;79.54
75219;BME280;63801;49.414;19.474;2024-01-06T10:00:30;92810.56;;;5.72;79.40
75219;BME280;63801;49.414;19.474;2024-01-06T10:02:30;92805.66;;;5.74;79.58
75219;BME280;63801;49.414;19.474;2024-01-06T10:04:33;92807.19;;;5.75;79.60
75219;BME280;63801;49.414;19.474;2024-01-06T10:06:33;92806.09;;;5.76;79.58
75219;BME280;63801;49.414;19.474;2024-01-06T10:08:34;92791.06;;;5.72;79.57
75219;BME280;63801;49.414;19.474;2024-01-06T10:10:35;92794.97;;;5.74;79.56
75219;BME280;63801;49.414;19.474;2024-01-06T10:12:37;92807.50;;;5.86;79.63
75219;BME280;63801;49.414;19.474;2024-01-06T10:14:38;92813.75;;;5.90;79.65
75219;BME280;63801;49.414;19.474;2024-01-06T10:16:39;92804.69;;;5.95;79.65
75219;BME280;63801;49.414;19.474;2024-01-06T10:18:40;92803.59;;;5.96;79.58
75219;BME280;63801;49.414;19.474;2024-01-06T10:20:40;92805.66;;;6.02;79.42
75219;BME280;63801;49.414;19.474;2024-01-06T10:22:41;92805.31;;;6.04;79.49
75219;BME280;63801;49.414;19.474;2024-01-06T10:24:42;92800.13;;;6.11;79.58
75219;BME280;63801;49.414;19.474;2024-01-06T10:26:42;92802.94;;;6.14;79.49
75219;BME280;63801;49.414;19.474;2024-01-06T10:28:43;92797.91;;;6.13;79.54
75219;BME280;63801;49.414;19.474;2024-01-06T10:30:43;92800.00;;;6.19;79.47
75219;BME280;63801;49.414;19.474;2024-01-06T10:32:43;92809.22;;;6.22;79.47
75219;BME280;63801;49.414;19.474;2024-01-06T10:34:44;92808.53;;;6.25;79.43
75219;BME280;63801;49.414;19.474;2024-01-06T10:36:45;92804.03;;;6.29;79.44
75219;BME280;63801;49.414;19.474;2024-01-06T10:38:45;92802.94;;;6.30;79.38